createdAt,value
2017-12-15T00:01:11.548Z,0.90
2017-12-15T00:03:39.599Z,0.80
2017-12-15T00:06:07.591Z,0.80
2017-12-15T00:08:35.475Z,0.90
2017-12-15T00:11:04.144Z,0.90
2017-12-15T00:13:32.002Z,0.90
2017-12-15T00:15:59.881Z,1.00
2017-12-15T00:18:27.814Z,1.00
2017-12-15T00:20:55.703Z,1.00
2017-12-15T00:23:23.963Z,1.10
2017-12-15T00:25:51.732Z,1.10
2017-12-15T00:28:19.602Z,1.10
2017-12-15T00:30:47.376Z,1.20
2017-12-15T00:33:15.283Z,1.10
2017-12-15T00:35:43.932Z,1.20
2017-12-15T00:38:11.899Z,1.20
2017-12-15T00:40:39.767Z,1.20
2017-12-15T00:43:07.729Z,1.20
2017-12-15T00:45:35.523Z,1.20
2017-12-15T00:48:04.197Z,1.20
2017-12-15T00:50:32.092Z,1.20
2017-12-15T00:52:59.865Z,1.10
2017-12-15T00:55:28.606Z,1.10
2017-12-15T00:57:57.362Z,1.20
2017-12-15T01:00:25.148Z,1.10
2017-12-15T01:02:53.100Z,1.20
2017-12-15T01:05:20.986Z,1.20
2017-12-15T01:07:48.856Z,1.20
2017-12-15T01:10:17.432Z,1.10
2017-12-15T01:12:45.215Z,1.10
2017-12-15T01:15:13.062Z,1.10
2017-12-15T01:17:40.912Z,1.10
2017-12-15T01:20:08.780Z,1.10
2017-12-15T01:22:36.559Z,1.10
2017-12-15T01:25:04.524Z,1.10
2017-12-15T01:27:32.374Z,1.00
2017-12-15T01:30:00.150Z,0.90
2017-12-15T01:32:28.007Z,0.90
2017-12-15T01:34:55.887Z,1.00
2017-12-15T01:37:23.658Z,1.20
2017-12-15T01:39:51.527Z,1.40
2017-12-15T01:42:19.295Z,1.40
2017-12-15T01:44:47.993Z,1.50
2017-12-15T01:47:16.560Z,1.40
2017-12-15T01:49:44.315Z,1.40
2017-12-15T01:52:12.185Z,1.40
2017-12-15T01:54:39.979Z,1.50
2017-12-15T01:57:08.525Z,1.60
2017-12-15T01:59:36.484Z,1.60
2017-12-15T02:02:04.255Z,1.70
2017-12-15T02:04:32.059Z,1.80
2017-12-15T02:07:00.694Z,1.90
2017-12-15T02:09:28.449Z,1.90
2017-12-15T02:11:56.252Z,1.90
2017-12-15T02:14:24.108Z,1.90
2017-12-15T02:16:51.863Z,1.80
2017-12-15T02:19:19.819Z,1.80
2017-12-15T02:21:47.582Z,1.80
2017-12-15T02:24:15.448Z,1.80
2017-12-15T02:26:43.356Z,1.70
2017-12-15T02:29:11.201Z,1.80
2017-12-15T02:31:38.981Z,2.20
2017-12-15T02:34:06.729Z,2.50
2017-12-15T02:36:34.591Z,2.70
2017-12-15T02:39:03.285Z,2.70
2017-12-15T02:41:31.040Z,2.80
2017-12-15T02:43:58.812Z,2.60
2017-12-15T02:46:26.723Z,2.40
2017-12-15T02:48:54.540Z,2.30
2017-12-15T02:51:22.345Z,2.30
2017-12-15T02:53:50.870Z,2.10
2017-12-15T02:56:18.687Z,2.20
2017-12-15T02:58:47.233Z,2.10
2017-12-15T03:01:15.105Z,2.00
2017-12-15T03:03:43.786Z,2.30
2017-12-15T03:06:11.547Z,2.20
2017-12-15T03:08:39.323Z,2.30
2017-12-15T03:11:07.104Z,2.30
2017-12-15T03:13:35.861Z,2.20
2017-12-15T03:16:03.842Z,2.20
2017-12-15T03:18:31.669Z,2.30
2017-12-15T03:20:59.432Z,2.30
2017-12-15T03:23:27.336Z,2.30
2017-12-15T03:25:55.181Z,2.30
2017-12-15T03:28:23.062Z,2.20
2017-12-15T03:30:50.791Z,2.20
2017-12-15T03:33:18.715Z,2.20
2017-12-15T03:35:46.447Z,2.10
2017-12-15T03:38:14.320Z,2.00
2017-12-15T03:40:42.082Z,2.00
2017-12-15T03:43:09.955Z,1.90
2017-12-15T03:45:37.768Z,1.90
2017-12-15T03:48:05.507Z,1.90
2017-12-15T03:50:33.449Z,1.90
2017-12-15T03:53:01.299Z,1.90
2017-12-15T03:55:29.039Z,1.90
2017-12-15T03:57:56.791Z,1.90
2017-12-15T04:00:24.555Z,1.90
2017-12-15T04:02:52.433Z,1.90
2017-12-15T04:05:20.335Z,1.90
2017-12-15T04:07:48.215Z,2.00
2017-12-15T04:10:15.974Z,2.00
2017-12-15T04:12:43.743Z,2.00
2017-12-15T04:15:11.492Z,2.00
2017-12-15T04:17:39.376Z,2.00
2017-12-15T04:20:07.313Z,2.00
2017-12-15T04:22:35.287Z,2.00
2017-12-15T04:25:03.165Z,1.90
2017-12-15T04:27:31.037Z,2.00
2017-12-15T04:29:58.882Z,2.00
2017-12-15T04:32:26.866Z,1.90
2017-12-15T04:34:54.744Z,1.80
2017-12-15T04:37:22.803Z,1.70
2017-12-15T04:39:51.517Z,1.60
2017-12-15T04:42:19.477Z,1.60
2017-12-15T04:44:47.297Z,1.60
2017-12-15T04:47:15.076Z,1.60
2017-12-15T04:49:42.889Z,1.60
2017-12-15T04:52:11.449Z,1.50
2017-12-15T04:54:39.301Z,1.50
2017-12-15T04:57:07.163Z,1.40
2017-12-15T04:59:35.036Z,1.40
2017-12-15T05:02:02.887Z,1.50
2017-12-15T05:04:30.661Z,1.50
2017-12-15T05:06:58.447Z,1.40
2017-12-15T05:09:26.278Z,1.40
2017-12-15T05:11:54.166Z,1.40
2017-12-15T05:14:22.033Z,1.40
2017-12-15T05:16:49.896Z,1.50
2017-12-15T05:19:18.054Z,1.70
2017-12-15T05:21:45.935Z,1.60
2017-12-15T05:24:13.990Z,1.50
2017-12-15T05:26:41.856Z,1.40
2017-12-15T05:29:09.672Z,1.40
2017-12-15T05:31:38.198Z,1.40
2017-12-15T05:34:05.986Z,1.40
2017-12-15T05:36:33.737Z,1.40
2017-12-15T05:39:01.572Z,1.40
2017-12-15T05:41:29.590Z,1.30
2017-12-15T05:43:57.364Z,1.30
2017-12-15T05:46:25.311Z,1.50
2017-12-15T05:48:53.181Z,1.50
2017-12-15T05:51:21.074Z,1.60
2017-12-15T05:53:48.846Z,1.60
2017-12-15T05:56:17.381Z,1.50
2017-12-15T05:58:45.174Z,1.50
2017-12-15T06:01:13.023Z,1.60
2017-12-15T06:03:40.784Z,1.70
2017-12-15T06:06:08.582Z,1.60
2017-12-15T06:08:37.221Z,2.00
2017-12-15T06:11:04.997Z,2.00
2017-12-15T06:13:32.863Z,2.30
2017-12-15T06:16:00.798Z,2.50
2017-12-15T06:18:28.690Z,2.60
2017-12-15T06:20:57.153Z,2.60
2017-12-15T06:23:24.927Z,2.30
2017-12-15T06:25:52.678Z,2.20
2017-12-15T06:28:21.186Z,1.70
2017-12-15T06:30:49.056Z,1.70
2017-12-15T06:33:16.897Z,1.50
2017-12-15T06:35:44.794Z,1.50
2017-12-15T06:38:12.697Z,1.70
2017-12-15T06:40:41.355Z,1.90
2017-12-15T06:43:09.313Z,1.90
2017-12-15T06:45:37.146Z,1.80
2017-12-15T06:48:05.152Z,1.60
2017-12-15T06:50:33.116Z,1.70
2017-12-15T06:53:01.095Z,1.90
2017-12-15T06:55:28.960Z,2.10
2017-12-15T06:57:58.135Z,2.00
2017-12-15T07:00:26.027Z,1.90
2017-12-15T07:02:53.779Z,1.90
2017-12-15T07:05:21.733Z,1.80
2017-12-15T07:07:49.700Z,1.90
2017-12-15T07:10:17.457Z,2.10
2017-12-15T07:12:45.225Z,2.20
2017-12-15T07:15:13.117Z,2.00
2017-12-15T07:17:41.019Z,1.70
2017-12-15T07:20:09.557Z,2.30
2017-12-15T07:22:37.326Z,2.30
2017-12-15T07:25:05.078Z,2.10
2017-12-15T07:27:32.887Z,1.90
2017-12-15T07:30:01.548Z,1.60
2017-12-15T07:32:29.340Z,1.60
2017-12-15T07:34:57.986Z,1.30
2017-12-15T07:37:25.881Z,1.30
2017-12-15T07:39:54.544Z,1.40
2017-12-15T07:42:22.499Z,1.30
2017-12-15T07:44:50.374Z,1.60
2017-12-15T07:47:18.182Z,1.60
2017-12-15T07:49:46.746Z,1.40
2017-12-15T07:52:14.674Z,1.40
2017-12-15T07:54:42.544Z,1.40
2017-12-15T07:57:10.950Z,1.40
2017-12-15T07:59:38.712Z,1.40
2017-12-15T08:02:06.568Z,1.40
2017-12-15T08:04:34.416Z,1.20
2017-12-15T08:07:02.196Z,1.00
2017-12-15T08:09:30.148Z,1.00
2017-12-15T08:11:58.015Z,1.20
2017-12-15T08:14:26.711Z,1.60
2017-12-15T08:16:54.480Z,1.70
2017-12-15T08:19:22.349Z,1.70
2017-12-15T08:21:50.234Z,2.00
2017-12-15T08:24:18.087Z,2.60
2017-12-15T08:26:47.486Z,2.80
2017-12-15T08:29:16.352Z,3.10
2017-12-15T08:31:44.135Z,3.20
2017-12-15T08:34:12.004Z,3.30
2017-12-15T08:36:39.883Z,3.30
2017-12-15T08:39:07.652Z,3.30
2017-12-15T08:41:35.502Z,3.20
2017-12-15T08:44:03.451Z,3.20
2017-12-15T08:46:31.236Z,3.10
2017-12-15T08:48:59.106Z,3.10
2017-12-15T08:51:27.082Z,3.20
2017-12-15T08:53:55.028Z,3.30
2017-12-15T08:56:22.909Z,3.30
2017-12-15T08:58:50.756Z,3.30
2017-12-15T09:01:18.569Z,3.40
2017-12-15T09:03:47.307Z,3.60
2017-12-15T09:06:15.113Z,3.60
2017-12-15T09:08:43.677Z,3.50
2017-12-15T09:11:11.534Z,3.50
2017-12-15T09:13:40.126Z,3.60
2017-12-15T09:16:07.906Z,3.60
2017-12-15T09:18:36.504Z,3.60
2017-12-15T09:21:05.237Z,3.60
2017-12-15T09:23:33.048Z,3.60
2017-12-15T09:26:01.711Z,3.80
2017-12-15T09:28:29.480Z,3.80
2017-12-15T09:30:57.349Z,3.90
2017-12-15T09:33:25.212Z,4.00
2017-12-15T09:35:53.169Z,4.00
2017-12-15T09:38:20.963Z,4.10
2017-12-15T09:40:49.659Z,4.00
2017-12-15T09:43:18.319Z,4.10
2017-12-15T09:45:46.283Z,4.10
2017-12-15T09:48:14.145Z,4.10
2017-12-15T09:50:42.008Z,4.20
2017-12-15T09:53:09.886Z,4.30
2017-12-15T09:55:37.659Z,4.20
2017-12-15T09:58:05.594Z,4.20
2017-12-15T10:00:33.473Z,4.10
2017-12-15T10:03:01.456Z,4.20
2017-12-15T10:05:29.293Z,4.20
2017-12-15T10:07:57.262Z,4.30
2017-12-15T10:10:25.154Z,4.50
2017-12-15T10:12:53.716Z,4.70
2017-12-15T10:15:21.536Z,4.80
2017-12-15T10:17:50.164Z,5.00
2017-12-15T10:20:18.056Z,5.00
2017-12-15T10:22:45.911Z,5.00
2017-12-15T10:25:14.196Z,5.20
2017-12-15T10:27:42.048Z,5.30
2017-12-15T10:30:10.005Z,5.50
2017-12-15T10:32:37.822Z,5.70
2017-12-15T10:35:06.474Z,5.90
2017-12-15T10:37:34.427Z,5.90
2017-12-15T10:40:02.209Z,5.90
2017-12-15T10:42:30.188Z,6.00
2017-12-15T10:44:58.001Z,6.10
2017-12-15T10:47:26.208Z,6.00
2017-12-15T10:49:53.980Z,6.10
2017-12-15T10:52:22.132Z,6.20
2017-12-15T10:54:49.884Z,6.40
2017-12-15T10:57:17.612Z,6.40
2017-12-15T10:59:46.167Z,6.40
2017-12-15T11:02:14.842Z,6.40
2017-12-15T11:04:42.596Z,6.50
2017-12-15T11:07:10.484Z,6.30
2017-12-15T11:09:38.245Z,6.20
2017-12-15T11:12:06.124Z,5.90
2017-12-15T11:14:33.982Z,5.70
2017-12-15T11:17:01.939Z,5.60
2017-12-15T11:19:30.583Z,5.50
2017-12-15T11:21:58.374Z,5.40
2017-12-15T11:24:26.319Z,5.30
2017-12-15T11:26:54.105Z,5.20
2017-12-15T11:29:23.531Z,5.30
2017-12-15T11:31:51.598Z,5.40
2017-12-15T11:34:19.403Z,5.50
2017-12-15T11:36:47.965Z,5.70
2017-12-15T11:39:15.921Z,5.70
2017-12-15T11:41:43.697Z,5.80
2017-12-15T11:44:11.535Z,5.80
2017-12-15T11:46:39.495Z,6.00
2017-12-15T11:49:07.313Z,6.10
2017-12-15T11:51:35.968Z,6.50
2017-12-15T11:54:03.777Z,6.40
2017-12-15T11:56:31.780Z,6.50
2017-12-15T11:58:59.662Z,6.60
2017-12-15T12:01:27.613Z,6.60
2017-12-15T12:03:55.597Z,6.60
2017-12-15T12:06:23.470Z,6.50
2017-12-15T12:08:51.444Z,6.50
2017-12-15T12:11:19.311Z,6.50
2017-12-15T12:13:47.170Z,6.60
2017-12-15T12:16:15.049Z,6.70
2017-12-15T12:18:42.875Z,6.80
2017-12-15T12:21:10.651Z,6.70
2017-12-15T12:23:38.385Z,6.40
2017-12-15T12:26:06.195Z,6.40
2017-12-15T12:28:34.155Z,6.50
2017-12-15T12:31:01.929Z,6.50
2017-12-15T12:33:29.805Z,6.70
2017-12-15T12:35:57.766Z,6.70
2017-12-15T12:38:25.594Z,6.50
2017-12-15T12:40:53.497Z,6.30
2017-12-15T12:43:22.225Z,6.30
2017-12-15T12:45:50.049Z,6.20
2017-12-15T12:48:17.895Z,6.20
2017-12-15T12:50:45.690Z,6.20
2017-12-15T12:53:13.643Z,6.10
2017-12-15T12:55:41.617Z,6.10
2017-12-15T12:58:09.577Z,6.10
2017-12-15T13:00:37.428Z,6.10
2017-12-15T13:03:05.422Z,6.10
2017-12-15T13:05:33.386Z,6.20
2017-12-15T13:08:01.566Z,6.20
2017-12-15T13:10:29.394Z,6.30
2017-12-15T13:12:57.176Z,6.30
2017-12-15T13:15:25.166Z,6.40
2017-12-15T13:17:53.030Z,6.60
2017-12-15T13:20:20.894Z,6.60
2017-12-15T13:22:48.977Z,6.70
2017-12-15T13:25:18.375Z,7.00
2017-12-15T13:27:47.142Z,7.00
2017-12-15T13:30:15.212Z,7.10
2017-12-15T13:32:42.998Z,7.00
2017-12-15T13:35:10.835Z,7.00
2017-12-15T13:37:38.716Z,7.00
2017-12-15T13:40:06.591Z,6.90
2017-12-15T13:42:34.567Z,6.90
2017-12-15T13:45:02.510Z,6.80
2017-12-15T13:47:30.397Z,7.00
2017-12-15T13:49:58.177Z,7.30
2017-12-15T13:52:26.129Z,7.40
2017-12-15T13:54:54.002Z,7.50
2017-12-15T13:57:21.945Z,7.80
2017-12-15T13:59:49.909Z,8.00
2017-12-15T14:02:17.810Z,8.10
2017-12-15T14:04:45.652Z,8.00
2017-12-15T14:07:13.568Z,8.00
2017-12-15T14:09:42.522Z,8.30
2017-12-15T14:12:10.709Z,8.30
2017-12-15T14:14:38.791Z,8.20
2017-12-15T14:17:06.725Z,7.70
2017-12-15T14:19:35.010Z,7.40
2017-12-15T14:22:02.967Z,7.20
2017-12-15T14:24:30.929Z,7.30
2017-12-15T14:26:59.561Z,7.00
2017-12-15T14:29:28.226Z,6.20
2017-12-15T14:31:56.072Z,6.20
2017-12-15T14:34:24.047Z,6.10
2017-12-15T14:36:51.877Z,5.90
2017-12-15T14:39:19.785Z,5.80
2017-12-15T14:41:47.848Z,5.80
2017-12-15T14:44:15.738Z,5.80
2017-12-15T14:46:43.783Z,5.70
2017-12-15T14:49:11.848Z,5.70
2017-12-15T14:51:39.738Z,5.50
2017-12-15T14:54:07.547Z,5.30
2017-12-15T14:56:35.578Z,5.20
2017-12-15T14:59:03.652Z,5.00
2017-12-15T15:01:31.626Z,5.00
2017-12-15T15:03:59.474Z,4.70
2017-12-15T15:06:27.503Z,4.40
2017-12-15T15:08:55.328Z,4.40
2017-12-15T15:11:23.251Z,4.50
2017-12-15T15:13:51.047Z,4.40
2017-12-15T15:16:19.099Z,4.20
2017-12-15T15:18:46.981Z,4.30
2017-12-15T15:21:14.830Z,4.30
2017-12-15T15:23:42.798Z,4.20
2017-12-15T15:26:10.784Z,3.90
2017-12-15T15:28:38.674Z,3.70
2017-12-15T15:31:07.367Z,3.70
2017-12-15T15:33:36.107Z,3.60
2017-12-15T15:36:03.997Z,3.60
2017-12-15T15:38:31.945Z,3.50
2017-12-15T15:41:00.016Z,3.50
2017-12-15T15:43:28.085Z,3.70
2017-12-15T15:45:56.086Z,3.40
2017-12-15T15:48:24.842Z,3.00
2017-12-15T15:50:52.929Z,3.00
2017-12-15T15:53:20.843Z,2.90
2017-12-15T15:55:50.593Z,3.00
2017-12-15T15:58:18.665Z,3.00
2017-12-15T16:00:46.659Z,3.00
2017-12-15T16:03:15.421Z,3.20
2017-12-15T16:05:43.277Z,3.20
2017-12-15T16:08:11.255Z,3.20
2017-12-15T16:10:39.140Z,3.10
2017-12-15T16:13:07.091Z,3.40
2017-12-15T16:15:34.969Z,3.50
2017-12-15T16:18:02.925Z,3.20
2017-12-15T16:20:30.914Z,3.10
2017-12-15T16:22:58.910Z,3.20
2017-12-15T16:25:27.858Z,2.90
2017-12-15T16:27:55.783Z,2.90
2017-12-15T16:30:24.405Z,2.30
2017-12-15T16:32:52.579Z,2.20
2017-12-15T16:35:20.464Z,2.30
2017-12-15T16:37:48.631Z,2.30
2017-12-15T16:40:16.622Z,2.30
2017-12-15T16:42:44.577Z,2.20
2017-12-15T16:45:12.548Z,2.50
2017-12-15T16:47:41.310Z,2.60
2017-12-15T16:50:09.288Z,2.70
2017-12-15T16:52:37.320Z,2.70
2017-12-15T16:55:05.244Z,2.80
2017-12-15T16:57:33.317Z,2.70
2017-12-15T17:00:01.286Z,2.90
2017-12-15T17:02:29.573Z,2.80
2017-12-15T17:04:59.266Z,2.60
2017-12-15T17:07:27.434Z,2.60
2017-12-15T17:09:55.417Z,2.50
2017-12-15T17:12:23.270Z,2.60
2017-12-15T17:14:51.943Z,2.60
2017-12-15T17:17:19.823Z,2.60
2017-12-15T17:19:47.802Z,2.60
2017-12-15T17:22:15.712Z,2.70
2017-12-15T17:24:43.746Z,2.70
2017-12-15T17:27:11.683Z,2.60
2017-12-15T17:29:39.988Z,2.60
2017-12-15T17:32:08.180Z,2.60
2017-12-15T17:34:36.974Z,2.60
2017-12-15T17:37:05.778Z,2.60
2017-12-15T17:39:33.800Z,2.60
2017-12-15T17:42:01.926Z,2.60
2017-12-15T17:44:29.921Z,2.50
2017-12-15T17:46:57.810Z,2.50
2017-12-15T17:49:25.670Z,2.50
2017-12-15T17:51:53.556Z,2.50
2017-12-15T17:54:21.807Z,2.60
2017-12-15T17:56:49.765Z,2.60
2017-12-15T17:59:17.662Z,2.60
2017-12-15T18:01:45.526Z,2.70
2017-12-15T18:04:13.706Z,2.70
2017-12-15T18:06:41.636Z,2.70
2017-12-15T18:09:10.656Z,2.70
2017-12-15T18:11:38.498Z,2.70
2017-12-15T18:14:06.575Z,2.70
2017-12-15T18:16:34.452Z,2.70
2017-12-15T18:19:02.515Z,2.70
2017-12-15T18:21:30.578Z,2.80
2017-12-15T18:23:58.469Z,2.80
2017-12-15T18:26:27.354Z,2.70
2017-12-15T18:28:55.302Z,2.70
2017-12-15T18:31:23.504Z,2.70
2017-12-15T18:33:51.330Z,2.70
2017-12-15T18:36:19.308Z,2.80
2017-12-15T18:38:47.420Z,2.90
2017-12-15T18:41:15.873Z,2.80
2017-12-15T18:43:43.907Z,2.80
2017-12-15T18:46:12.156Z,2.90
2017-12-15T18:48:40.903Z,2.80
2017-12-15T18:51:08.897Z,2.80
2017-12-15T18:53:37.575Z,2.80
2017-12-15T18:56:05.544Z,2.80
2017-12-15T18:58:33.663Z,2.80
2017-12-15T19:01:01.608Z,2.80
2017-12-15T19:03:29.662Z,2.80
2017-12-15T19:05:57.699Z,2.80
2017-12-15T19:08:25.810Z,2.70
2017-12-15T19:10:54.885Z,2.70
2017-12-15T19:13:22.971Z,2.70
2017-12-15T19:15:50.981Z,2.80
2017-12-15T19:18:18.908Z,2.80
2017-12-15T19:20:46.920Z,2.70
2017-12-15T19:23:14.880Z,2.70
2017-12-15T19:25:42.782Z,2.70
2017-12-15T19:28:10.756Z,2.70
2017-12-15T19:30:38.829Z,2.70
2017-12-15T19:33:06.693Z,2.70
2017-12-15T19:35:34.585Z,2.70
2017-12-15T19:38:02.525Z,2.70
2017-12-15T19:40:30.475Z,2.70
2017-12-15T19:42:59.279Z,2.60
2017-12-15T19:45:27.964Z,2.60
2017-12-15T19:47:56.080Z,2.60
2017-12-15T19:50:24.921Z,2.60
2017-12-15T19:52:53.108Z,2.50
2017-12-15T19:55:21.075Z,2.60
2017-12-15T19:57:49.307Z,2.50
2017-12-15T20:00:18.236Z,2.50
2017-12-15T20:02:46.157Z,2.40
2017-12-15T20:05:14.817Z,2.40
2017-12-15T20:07:43.491Z,2.40
2017-12-15T20:10:11.549Z,2.40
2017-12-15T20:12:40.389Z,2.30
2017-12-15T20:15:09.253Z,2.40
2017-12-15T20:17:37.906Z,2.40
2017-12-15T20:20:06.885Z,2.40
2017-12-15T20:22:34.888Z,2.40
2017-12-15T20:25:02.869Z,2.50
2017-12-15T20:27:30.735Z,2.50
2017-12-15T20:29:58.877Z,2.50
2017-12-15T20:32:26.759Z,2.50
2017-12-15T20:34:54.712Z,2.50
2017-12-15T20:37:22.887Z,2.50
2017-12-15T20:39:51.059Z,2.50
2017-12-15T20:42:19.023Z,2.40
2017-12-15T20:44:46.979Z,2.40
2017-12-15T20:47:14.891Z,2.40
2017-12-15T20:49:42.931Z,2.40
2017-12-15T20:52:11.004Z,2.40
2017-12-15T20:54:38.897Z,2.30
2017-12-15T20:57:06.931Z,2.30
2017-12-15T20:59:34.934Z,2.30
2017-12-15T21:02:02.907Z,2.30
2017-12-15T21:04:30.894Z,2.20
2017-12-15T21:06:59.475Z,2.20
2017-12-15T21:09:28.254Z,2.20
2017-12-15T21:11:58.030Z,2.20
2017-12-15T21:14:26.003Z,2.10
2017-12-15T21:16:54.692Z,2.10
2017-12-15T21:19:22.940Z,2.10
2017-12-15T21:21:50.766Z,2.10
2017-12-15T21:24:19.515Z,2.30
2017-12-15T21:26:47.462Z,2.30
2017-12-15T21:29:15.350Z,2.30
2017-12-15T21:31:43.248Z,2.30
2017-12-15T21:34:11.080Z,2.40
2017-12-15T21:36:39.153Z,2.40
2017-12-15T21:39:06.941Z,2.30
2017-12-15T21:41:34.784Z,2.40
2017-12-15T21:44:02.554Z,2.40
2017-12-15T21:46:30.559Z,2.40
2017-12-15T21:48:59.433Z,2.30
2017-12-15T21:51:27.300Z,2.30
2017-12-15T21:53:55.461Z,2.30
2017-12-15T21:56:23.312Z,2.30
2017-12-15T21:58:51.175Z,2.20
2017-12-15T22:01:19.040Z,2.10
2017-12-15T22:03:46.932Z,2.10
2017-12-15T22:06:14.980Z,2.10
2017-12-15T22:08:42.869Z,2.00
2017-12-15T22:11:10.737Z,2.00
2017-12-15T22:13:38.602Z,2.10
2017-12-15T22:16:07.484Z,2.10
2017-12-15T22:18:35.538Z,2.20
2017-12-15T22:21:03.436Z,2.20
2017-12-15T22:23:31.374Z,2.10
2017-12-15T22:25:59.172Z,2.10
2017-12-15T22:28:27.025Z,2.10
2017-12-15T22:30:54.906Z,2.00
2017-12-15T22:33:22.669Z,2.00
2017-12-15T22:35:51.730Z,1.90
2017-12-15T22:38:19.698Z,1.80
2017-12-15T22:40:47.508Z,1.80
2017-12-15T22:43:16.845Z,1.80
2017-12-15T22:45:44.598Z,1.80
2017-12-15T22:48:12.411Z,1.80
2017-12-15T22:50:40.282Z,1.70
2017-12-15T22:53:08.763Z,1.60
2017-12-15T22:55:36.625Z,1.60
2017-12-15T22:58:04.539Z,1.60
2017-12-15T23:00:32.567Z,1.60
2017-12-15T23:03:00.368Z,1.60
2017-12-15T23:05:28.933Z,1.50
2017-12-15T23:07:56.767Z,1.50
2017-12-15T23:10:24.562Z,1.50
2017-12-15T23:12:52.401Z,1.40
2017-12-15T23:15:20.279Z,1.40
2017-12-15T23:17:48.300Z,1.40
2017-12-15T23:20:16.216Z,1.40
2017-12-15T23:22:44.071Z,1.30
2017-12-15T23:25:11.943Z,1.40
2017-12-15T23:27:39.810Z,1.40
2017-12-15T23:30:07.654Z,1.40
2017-12-15T23:32:35.424Z,1.40
2017-12-15T23:35:03.202Z,1.40
2017-12-15T23:37:31.268Z,1.50
2017-12-15T23:39:59.334Z,1.50
2017-12-15T23:42:27.322Z,1.50
2017-12-15T23:44:55.181Z,1.60
2017-12-15T23:47:23.061Z,1.60
2017-12-15T23:49:51.000Z,1.50
2017-12-15T23:52:18.801Z,1.40
2017-12-15T23:54:58.927Z,1.40
2017-12-15T23:57:26.826Z,1.20
2017-12-15T23:59:55.482Z,1.20
